createdAt,value
2017-08-14T00:00:05.102Z,1008.8
2017-08-14T00:01:06.499Z,1008.9
2017-08-14T00:02:07.898Z,1008.8
2017-08-14T00:03:09.298Z,1008.8
2017-08-14T00:04:10.700Z,1008.8
2017-08-14T00:05:12.099Z,1008.8
2017-08-14T00:06:13.500Z,1008.8
2017-08-14T00:07:14.891Z,1008.8
2017-08-14T00:08:16.286Z,1008.8
2017-08-14T00:09:17.695Z,1008.8
2017-08-14T00:10:19.093Z,1008.8
2017-08-14T00:11:20.493Z,1008.8
2017-08-14T00:12:21.891Z,1008.8
2017-08-14T00:13:23.292Z,1008.8
2017-08-14T00:14:24.738Z,1008.7
2017-08-14T00:15:26.138Z,1008.8
2017-08-14T00:16:27.536Z,1008.7
2017-08-14T00:17:28.932Z,1008.8
2017-08-14T00:18:30.329Z,1008.7
2017-08-14T00:19:31.735Z,1008.7
2017-08-14T00:20:33.130Z,1008.7
2017-08-14T00:21:34.527Z,1008.7
2017-08-14T00:22:35.921Z,1008.7
2017-08-14T00:23:37.318Z,1008.7
2017-08-14T00:24:38.717Z,1008.8
2017-08-14T00:25:40.115Z,1008.7
2017-08-14T00:26:41.513Z,1008.7
2017-08-14T00:27:42.911Z,1008.8
2017-08-14T00:28:44.309Z,1008.8
2017-08-14T00:29:45.707Z,1008.7
2017-08-14T00:30:47.101Z,1008.7
2017-08-14T00:31:48.499Z,1008.7
2017-08-14T00:32:49.893Z,1008.7
2017-08-14T00:33:51.292Z,1008.7
2017-08-14T00:34:52.692Z,1008.7
2017-08-14T00:35:54.091Z,1008.7
2017-08-14T00:36:55.484Z,1008.7
2017-08-14T00:37:56.881Z,1008.7
2017-08-14T00:38:58.285Z,1008.7
2017-08-14T00:39:59.683Z,1008.7
2017-08-14T00:41:01.079Z,1008.7
2017-08-14T00:42:02.490Z,1008.7
2017-08-14T00:43:03.887Z,1008.7
2017-08-14T00:44:05.286Z,1008.7
2017-08-14T00:45:06.684Z,1008.7
2017-08-14T00:46:08.076Z,1008.7
2017-08-14T00:47:09.474Z,1008.7
2017-08-14T00:48:10.878Z,1008.7
2017-08-14T00:49:12.276Z,1008.7
2017-08-14T00:50:13.672Z,1008.7
2017-08-14T00:51:15.067Z,1008.7
2017-08-14T00:52:16.464Z,1008.7
2017-08-14T00:53:17.858Z,1008.7
2017-08-14T00:54:19.260Z,1008.6
2017-08-14T00:55:20.656Z,1008.6
2017-08-14T00:56:22.054Z,1008.6
2017-08-14T00:57:23.448Z,1008.6
2017-08-14T00:58:24.843Z,1008.6
2017-08-14T00:59:26.244Z,1008.6
2017-08-14T01:00:27.642Z,1008.6
2017-08-14T01:01:29.047Z,1008.6
2017-08-14T01:02:30.447Z,1008.6
2017-08-14T01:03:31.845Z,1008.6
2017-08-14T01:04:33.244Z,1008.5
2017-08-14T01:05:34.639Z,1008.5
2017-08-14T01:06:36.032Z,1008.5
2017-08-14T01:07:37.430Z,1008.5
2017-08-14T01:08:38.828Z,1008.5
2017-08-14T01:09:40.229Z,1008.5
2017-08-14T01:10:41.631Z,1008.5
2017-08-14T01:11:43.031Z,1008.5
2017-08-14T01:12:44.421Z,1008.5
2017-08-14T01:13:45.821Z,1008.5
2017-08-14T01:14:47.217Z,1008.5
2017-08-14T01:15:48.614Z,1008.5
2017-08-14T01:16:50.011Z,1008.4
2017-08-14T01:17:51.411Z,1008.4
2017-08-14T01:18:52.811Z,1008.4
2017-08-14T01:19:54.208Z,1008.5
2017-08-14T01:20:55.603Z,1008.4
2017-08-14T01:21:57.000Z,1008.4
2017-08-14T01:22:58.402Z,1008.4
2017-08-14T01:23:59.804Z,1008.4
2017-08-14T01:25:01.199Z,1008.4
2017-08-14T01:26:02.596Z,1008.4
2017-08-14T01:27:03.990Z,1008.4
2017-08-14T01:28:05.383Z,1008.4
2017-08-14T01:29:06.782Z,1008.3
2017-08-14T01:30:08.180Z,1008.4
2017-08-14T01:31:09.581Z,1008.4
2017-08-14T01:32:10.977Z,1008.3
2017-08-14T01:33:12.370Z,1008.4
2017-08-14T01:34:13.766Z,1008.3
2017-08-14T01:35:15.167Z,1008.3
2017-08-14T01:36:16.565Z,1008.3
2017-08-14T01:37:17.964Z,1008.3
2017-08-14T01:38:19.369Z,1008.2
2017-08-14T01:39:20.769Z,1008.3
2017-08-14T01:40:22.164Z,1008.3
2017-08-14T01:41:23.560Z,1008.3
2017-08-14T01:42:24.957Z,1008.2
2017-08-14T01:43:26.353Z,1008.3
2017-08-14T01:44:27.753Z,1008.2
2017-08-14T01:45:29.152Z,1008.3
2017-08-14T01:46:30.552Z,1008.3
2017-08-14T01:47:31.944Z,1008.2
2017-08-14T01:48:33.341Z,1008.3
2017-08-14T01:49:34.742Z,1008.2
2017-08-14T01:50:36.141Z,1008.2
2017-08-14T01:51:37.534Z,1008.3
2017-08-14T01:52:38.932Z,1008.2
2017-08-14T01:53:40.335Z,1008.3
2017-08-14T01:54:41.731Z,1008.2
2017-08-14T01:55:43.128Z,1008.2
2017-08-14T01:56:44.524Z,1008.2
2017-08-14T01:57:45.921Z,1008.2
2017-08-14T01:58:47.318Z,1008.2
2017-08-14T01:59:48.720Z,1008.2
2017-08-14T02:00:50.116Z,1008.2
2017-08-14T02:01:51.514Z,1008.2
2017-08-14T02:02:52.906Z,1008.2
2017-08-14T02:03:54.311Z,1008.2
2017-08-14T02:04:55.711Z,1008.3
2017-08-14T02:05:57.110Z,1008.3
2017-08-14T02:06:58.509Z,1008.2
2017-08-14T02:07:59.906Z,1008.3
2017-08-14T02:09:01.305Z,1008.2
2017-08-14T02:10:02.702Z,1008.2
2017-08-14T02:11:04.097Z,1008.2
2017-08-14T02:12:05.494Z,1008.2
2017-08-14T02:13:06.892Z,1008.2
2017-08-14T02:14:08.294Z,1008.2
2017-08-14T02:15:09.696Z,1008.2
2017-08-14T02:16:11.090Z,1008.2
2017-08-14T02:17:12.486Z,1008.2
2017-08-14T02:18:13.884Z,1008.1
2017-08-14T02:19:15.283Z,1008.1
2017-08-14T02:20:16.679Z,1008.1
2017-08-14T02:21:18.077Z,1008.1
2017-08-14T02:22:19.478Z,1008.2
2017-08-14T02:23:20.872Z,1008.1
2017-08-14T02:24:22.272Z,1008.2
2017-08-14T02:25:23.670Z,1008.2
2017-08-14T02:26:25.072Z,1008.2
2017-08-14T02:27:26.469Z,1008.1
2017-08-14T02:28:27.871Z,1008.1
2017-08-14T02:29:29.275Z,1008.1
2017-08-14T02:30:30.670Z,1008.1
2017-08-14T02:31:32.065Z,1008.1
2017-08-14T02:32:33.460Z,1008.1
2017-08-14T02:33:34.859Z,1008.1
2017-08-14T02:34:36.258Z,1008.1
2017-08-14T02:35:37.653Z,1008.1
2017-08-14T02:36:39.067Z,1008.1
2017-08-14T02:37:40.503Z,1008.1
2017-08-14T02:38:41.907Z,1008.1
2017-08-14T02:39:43.302Z,1008.1
2017-08-14T02:40:44.702Z,1008.0
2017-08-14T02:41:46.104Z,1008.0
2017-08-14T02:42:47.503Z,1008.0
2017-08-14T02:43:48.903Z,1008.1
2017-08-14T02:44:50.300Z,1008.0
2017-08-14T02:45:51.698Z,1008.1
2017-08-14T02:46:53.094Z,1008.0
2017-08-14T02:47:54.492Z,1008.1
2017-08-14T02:48:55.892Z,1008.0
2017-08-14T02:49:57.290Z,1008.0
2017-08-14T02:50:58.694Z,1008.0
2017-08-14T02:52:00.085Z,1008.0
2017-08-14T02:53:01.478Z,1008.0
2017-08-14T02:54:02.876Z,1008.0
2017-08-14T02:55:04.273Z,1008.0
2017-08-14T02:56:05.697Z,1008.0
2017-08-14T02:57:07.095Z,1008.0
2017-08-14T02:58:08.496Z,1008.0
2017-08-14T02:59:09.889Z,1008.0
2017-08-14T03:00:11.286Z,1008.0
2017-08-14T03:01:12.683Z,1008.0
2017-08-14T03:02:14.076Z,1008.0
2017-08-14T03:03:15.478Z,1008.0
2017-08-14T03:04:16.884Z,1008.0
2017-08-14T03:05:18.279Z,1008.0
2017-08-14T03:06:19.677Z,1008.0
2017-08-14T03:07:21.073Z,1008.0
2017-08-14T03:08:22.468Z,1008.0
2017-08-14T03:09:23.866Z,1008.0
2017-08-14T03:10:25.263Z,1008.0
2017-08-14T03:11:26.661Z,1008.0
2017-08-14T03:12:28.060Z,1008.0
2017-08-14T03:13:29.465Z,1008.0
2017-08-14T03:14:30.858Z,1008.0
2017-08-14T03:15:32.254Z,1008.0
2017-08-14T03:16:33.652Z,1008.0
2017-08-14T03:17:35.051Z,1008.0
2017-08-14T03:18:36.452Z,1008.0
2017-08-14T03:19:37.847Z,1008.0
2017-08-14T03:20:39.245Z,1008.0
2017-08-14T03:21:40.639Z,1008.0
2017-08-14T03:22:42.036Z,1008.0
2017-08-14T03:23:43.434Z,1008.0
2017-08-14T03:24:44.835Z,1008.0
2017-08-14T03:25:46.235Z,1007.9
2017-08-14T03:26:47.633Z,1007.9
2017-08-14T03:27:49.027Z,1007.9
2017-08-14T03:28:50.422Z,1007.9
2017-08-14T03:29:51.818Z,1007.9
2017-08-14T03:30:53.214Z,1007.8
2017-08-14T03:31:54.610Z,1007.8
2017-08-14T03:32:56.009Z,1007.8
2017-08-14T03:33:57.411Z,1007.8
2017-08-14T03:34:58.810Z,1007.8
2017-08-14T03:36:00.205Z,1007.8
2017-08-14T03:37:01.605Z,1007.8
2017-08-14T03:38:03.003Z,1007.8
2017-08-14T03:39:04.401Z,1007.8
2017-08-14T03:40:05.802Z,1007.8
2017-08-14T03:41:07.200Z,1007.8
2017-08-14T03:42:08.605Z,1007.8
2017-08-14T03:43:09.992Z,1007.8
2017-08-14T03:44:11.393Z,1007.8
2017-08-14T03:45:12.791Z,1007.8
2017-08-14T03:46:14.188Z,1007.8
2017-08-14T03:47:15.586Z,1007.8
2017-08-14T03:48:16.985Z,1007.8
2017-08-14T03:49:18.389Z,1007.7
2017-08-14T03:50:19.783Z,1007.7
2017-08-14T03:51:21.177Z,1007.7
2017-08-14T03:52:22.574Z,1007.7
2017-08-14T03:53:23.972Z,1007.7
2017-08-14T03:54:25.370Z,1007.7
2017-08-14T03:55:26.766Z,1007.8
2017-08-14T03:56:28.171Z,1007.7
2017-08-14T03:57:29.565Z,1007.7
2017-08-14T03:58:30.965Z,1007.7
2017-08-14T03:59:32.363Z,1007.8
2017-08-14T04:00:33.760Z,1007.7
2017-08-14T04:01:35.157Z,1007.8
2017-08-14T04:02:36.552Z,1007.8
2017-08-14T04:03:37.950Z,1007.8
2017-08-14T04:04:39.350Z,1007.7
2017-08-14T04:05:40.749Z,1007.7
2017-08-14T04:06:42.148Z,1007.8
2017-08-14T04:07:43.547Z,1007.7
2017-08-14T04:08:44.951Z,1007.8
2017-08-14T04:09:46.351Z,1007.7
2017-08-14T04:10:47.750Z,1007.7
2017-08-14T04:11:49.149Z,1007.7
2017-08-14T04:12:50.543Z,1007.8
2017-08-14T04:13:51.944Z,1007.8
2017-08-14T04:14:53.344Z,1007.8
2017-08-14T04:15:54.748Z,1007.7
2017-08-14T04:16:56.146Z,1007.7
2017-08-14T04:17:58.085Z,1007.7
2017-08-14T04:18:59.489Z,1007.7
2017-08-14T04:20:00.893Z,1007.8
2017-08-14T04:21:02.289Z,1007.7
2017-08-14T04:22:03.685Z,1007.7
2017-08-14T04:23:05.083Z,1007.7
2017-08-14T04:24:06.486Z,1007.7
2017-08-14T04:25:07.904Z,1007.7
2017-08-14T04:26:09.280Z,1007.7
2017-08-14T04:27:10.680Z,1007.7
2017-08-14T04:28:12.077Z,1007.7
2017-08-14T04:29:13.479Z,1007.7
2017-08-14T04:30:14.879Z,1007.7
2017-08-14T04:31:16.276Z,1007.7
2017-08-14T04:32:17.710Z,1007.7
2017-08-14T04:33:19.119Z,1007.7
2017-08-14T04:34:20.521Z,1007.7
2017-08-14T04:35:21.917Z,1007.7
2017-08-14T04:36:23.318Z,1007.8
2017-08-14T04:37:24.719Z,1007.8
2017-08-14T04:38:26.120Z,1007.8
2017-08-14T04:39:27.522Z,1007.8
2017-08-14T04:40:28.921Z,1007.8
2017-08-14T04:41:30.324Z,1007.8
2017-08-14T04:42:31.719Z,1007.8
2017-08-14T04:43:33.122Z,1007.8
2017-08-14T04:44:34.526Z,1007.8
2017-08-14T04:45:35.924Z,1007.8
2017-08-14T04:46:37.320Z,1007.8
2017-08-14T04:47:38.719Z,1007.8
2017-08-14T04:48:40.118Z,1007.9
2017-08-14T04:49:41.520Z,1007.8
2017-08-14T04:50:42.919Z,1007.8
2017-08-14T04:51:44.322Z,1007.9
2017-08-14T04:52:45.726Z,1007.9
2017-08-14T04:53:47.126Z,1007.9
2017-08-14T04:54:48.526Z,1007.8
2017-08-14T04:55:49.927Z,1007.9
2017-08-14T04:56:51.328Z,1007.9
2017-08-14T04:57:52.727Z,1007.9
2017-08-14T04:58:54.139Z,1007.9
2017-08-14T04:59:55.536Z,1007.9
2017-08-14T05:00:56.934Z,1007.9
2017-08-14T05:01:58.361Z,1007.9
2017-08-14T05:02:59.772Z,1007.8
2017-08-14T05:04:01.174Z,1007.8
2017-08-14T05:05:02.575Z,1007.8
2017-08-14T05:06:03.975Z,1007.8
2017-08-14T05:07:05.380Z,1007.8
2017-08-14T05:08:06.777Z,1007.8
2017-08-14T05:09:08.180Z,1007.8
2017-08-14T05:10:09.577Z,1007.8
2017-08-14T05:11:10.978Z,1007.8
2017-08-14T05:12:12.382Z,1007.8
2017-08-14T05:13:13.786Z,1007.8
2017-08-14T05:14:15.191Z,1007.8
2017-08-14T05:15:16.594Z,1007.8
2017-08-14T05:16:17.991Z,1007.8
2017-08-14T05:17:19.390Z,1007.8
2017-08-14T05:18:20.787Z,1007.8
2017-08-14T05:19:22.188Z,1007.8
2017-08-14T05:20:23.594Z,1007.8
2017-08-14T05:21:24.997Z,1007.8
2017-08-14T05:22:26.395Z,1007.8
2017-08-14T05:23:27.794Z,1007.8
2017-08-14T05:24:29.199Z,1007.8
2017-08-14T05:25:30.604Z,1007.8
2017-08-14T05:26:32.005Z,1007.8
2017-08-14T05:27:33.406Z,1007.8
2017-08-14T05:28:34.810Z,1007.7
2017-08-14T05:29:36.221Z,1007.8
2017-08-14T05:30:37.619Z,1007.8
2017-08-14T05:31:39.016Z,1007.8
2017-08-14T05:32:40.418Z,1007.8
2017-08-14T05:33:41.823Z,1007.8
2017-08-14T05:34:43.226Z,1007.8
2017-08-14T05:35:44.625Z,1007.9
2017-08-14T05:36:46.029Z,1007.8
2017-08-14T05:37:47.430Z,1007.8
2017-08-14T05:38:48.828Z,1007.8
2017-08-14T05:39:50.234Z,1007.8
2017-08-14T05:40:51.638Z,1007.8
2017-08-14T05:41:53.041Z,1007.8
2017-08-14T05:42:54.448Z,1007.8
2017-08-14T05:43:55.848Z,1007.8
2017-08-14T05:44:57.251Z,1007.8
2017-08-14T05:45:58.652Z,1007.8
2017-08-14T05:47:00.053Z,1007.8
2017-08-14T05:48:01.456Z,1007.8
2017-08-14T05:49:02.862Z,1007.8
2017-08-14T05:50:04.293Z,1007.8
2017-08-14T05:51:05.722Z,1007.8
2017-08-14T05:52:07.102Z,1007.8
2017-08-14T05:53:08.509Z,1007.8
2017-08-14T05:54:09.914Z,1007.7
2017-08-14T05:55:11.317Z,1007.8
2017-08-14T05:56:12.717Z,1007.8
2017-08-14T05:57:14.123Z,1007.7
2017-08-14T05:58:15.524Z,1007.7
2017-08-14T05:59:16.923Z,1007.7
2017-08-14T06:00:18.328Z,1007.7
2017-08-14T06:01:19.729Z,1007.7
2017-08-14T06:02:21.136Z,1007.7
2017-08-14T06:03:22.532Z,1007.7
2017-08-14T06:04:23.936Z,1007.7
2017-08-14T06:05:25.345Z,1007.7
2017-08-14T06:06:26.745Z,1007.7
2017-08-14T06:07:28.148Z,1007.7
2017-08-14T06:08:29.550Z,1007.7
2017-08-14T06:09:30.960Z,1007.6
2017-08-14T06:10:32.364Z,1007.7
2017-08-14T06:11:33.961Z,1007.7
2017-08-14T06:12:35.364Z,1007.7
2017-08-14T06:13:36.796Z,1007.7
2017-08-14T06:14:38.193Z,1007.7
2017-08-14T06:15:39.614Z,1007.8
2017-08-14T06:16:41.014Z,1007.8
2017-08-14T06:17:42.421Z,1007.8
2017-08-14T06:18:43.829Z,1007.8
2017-08-14T06:19:45.227Z,1007.8
2017-08-14T06:20:46.627Z,1007.8
2017-08-14T06:21:48.027Z,1007.8
2017-08-14T06:22:49.434Z,1007.8
2017-08-14T06:23:50.840Z,1007.8
2017-08-14T06:24:52.245Z,1007.8
2017-08-14T06:25:53.646Z,1007.8
2017-08-14T06:26:55.051Z,1007.8
2017-08-14T06:27:56.451Z,1007.9
2017-08-14T06:28:57.853Z,1007.8
2017-08-14T06:29:59.258Z,1007.9
2017-08-14T06:31:00.663Z,1007.8
2017-08-14T06:32:02.069Z,1007.9
2017-08-14T06:33:03.478Z,1007.9
2017-08-14T06:34:04.879Z,1007.9
2017-08-14T06:35:06.285Z,1007.9
2017-08-14T06:36:07.688Z,1007.9
2017-08-14T06:37:09.091Z,1008.0
2017-08-14T06:38:10.517Z,1008.0
2017-08-14T06:39:11.903Z,1007.9
2017-08-14T06:40:13.308Z,1007.9
2017-08-14T06:41:14.710Z,1008.0
2017-08-14T06:42:16.940Z,1007.9
2017-08-14T06:43:18.306Z,1007.9
2017-08-14T06:44:19.710Z,1007.9
2017-08-14T06:45:21.114Z,1007.9
2017-08-14T06:46:22.518Z,1007.9
2017-08-14T06:47:23.918Z,1007.9
2017-08-14T06:48:25.321Z,1007.9
2017-08-14T06:49:26.722Z,1007.9
2017-08-14T06:50:28.123Z,1007.9
2017-08-14T06:51:29.524Z,1007.9
2017-08-14T06:52:30.929Z,1007.9
2017-08-14T06:53:32.330Z,1007.9
2017-08-14T06:54:33.734Z,1007.9
2017-08-14T06:55:35.130Z,1007.9
2017-08-14T06:56:36.530Z,1007.9
2017-08-14T06:57:37.931Z,1007.9
2017-08-14T06:58:39.338Z,1007.9
2017-08-14T06:59:40.740Z,1007.9
2017-08-14T07:00:42.143Z,1007.8
2017-08-14T07:01:43.543Z,1007.8
2017-08-14T07:02:44.946Z,1007.8
2017-08-14T07:03:46.352Z,1007.9
2017-08-14T07:04:47.757Z,1007.8
2017-08-14T07:05:49.162Z,1007.8
2017-08-14T07:06:50.565Z,1007.8
2017-08-14T07:07:51.972Z,1007.8
2017-08-14T07:08:53.376Z,1007.9
2017-08-14T07:09:54.789Z,1007.9
2017-08-14T07:10:56.186Z,1007.8
2017-08-14T07:11:57.588Z,1007.8
2017-08-14T07:12:58.990Z,1007.8
2017-08-14T07:14:00.398Z,1007.8
2017-08-14T07:15:01.803Z,1007.8
2017-08-14T07:16:03.212Z,1007.8
2017-08-14T07:17:05.348Z,1007.8
2017-08-14T07:18:06.748Z,1007.8
2017-08-14T07:19:08.154Z,1007.8
2017-08-14T07:20:09.562Z,1007.8
2017-08-14T07:21:11.541Z,1007.7
2017-08-14T07:22:12.949Z,1007.7
2017-08-14T07:23:14.390Z,1007.7
2017-08-14T07:24:15.793Z,1007.8
2017-08-14T07:25:17.195Z,1007.8
2017-08-14T07:26:18.608Z,1007.7
2017-08-14T07:27:20.014Z,1007.7
2017-08-14T07:28:21.435Z,1007.7
2017-08-14T07:29:22.843Z,1007.8
2017-08-14T07:30:24.247Z,1007.8
2017-08-14T07:31:25.655Z,1007.7
2017-08-14T07:32:27.052Z,1007.7
2017-08-14T07:33:29.429Z,1007.8
2017-08-14T07:34:30.829Z,1007.7
2017-08-14T07:35:32.237Z,1007.7
2017-08-14T07:36:33.643Z,1007.7
2017-08-14T07:37:35.053Z,1007.7
2017-08-14T07:38:36.459Z,1007.7
2017-08-14T07:39:37.860Z,1007.7
2017-08-14T07:40:39.264Z,1007.7
2017-08-14T07:41:40.669Z,1007.7
2017-08-14T07:42:42.069Z,1007.7
2017-08-14T07:43:43.477Z,1007.7
2017-08-14T07:44:44.885Z,1007.6
2017-08-14T07:45:46.288Z,1007.6
2017-08-14T07:46:47.691Z,1007.7
2017-08-14T07:47:49.095Z,1007.7
2017-08-14T07:48:50.500Z,1007.7
2017-08-14T07:49:51.909Z,1007.6
2017-08-14T07:50:53.312Z,1007.6
2017-08-14T07:51:54.718Z,1007.6
2017-08-14T07:52:56.122Z,1007.6
2017-08-14T07:53:57.522Z,1007.6
2017-08-14T07:54:58.928Z,1007.6
2017-08-14T07:56:00.330Z,1007.6
2017-08-14T07:57:01.735Z,1007.6
2017-08-14T07:58:03.141Z,1007.6
2017-08-14T07:59:04.563Z,1007.5
2017-08-14T08:00:05.970Z,1007.5
2017-08-14T08:01:07.373Z,1007.5
2017-08-14T08:02:08.777Z,1007.5
2017-08-14T08:03:10.180Z,1007.5
2017-08-14T08:04:11.584Z,1007.5
2017-08-14T08:05:12.993Z,1007.5
2017-08-14T08:06:14.397Z,1007.5
2017-08-14T08:07:15.805Z,1007.5
2017-08-14T08:08:17.206Z,1007.4
2017-08-14T08:09:18.609Z,1007.5
2017-08-14T08:10:20.014Z,1007.5
2017-08-14T08:11:21.432Z,1007.5
2017-08-14T08:12:22.831Z,1007.5
2017-08-14T08:13:24.243Z,1007.5
2017-08-14T08:14:25.645Z,1007.5
2017-08-14T08:15:27.046Z,1007.5
2017-08-14T08:16:28.446Z,1007.5
2017-08-14T08:17:29.851Z,1007.5
2017-08-14T08:18:31.255Z,1007.5
2017-08-14T08:19:32.666Z,1007.5
2017-08-14T08:20:34.075Z,1007.5
2017-08-14T08:21:35.478Z,1007.5
2017-08-14T08:22:36.881Z,1007.5
2017-08-14T08:23:38.286Z,1007.5
2017-08-14T08:24:39.689Z,1007.5
2017-08-14T08:25:41.096Z,1007.5
2017-08-14T08:26:42.499Z,1007.5
2017-08-14T08:27:43.907Z,1007.4
2017-08-14T08:28:45.312Z,1007.5
2017-08-14T08:29:46.716Z,1007.5
2017-08-14T08:30:48.122Z,1007.5
2017-08-14T08:31:49.527Z,1007.5
2017-08-14T08:32:50.933Z,1007.5
2017-08-14T08:33:52.340Z,1007.5
2017-08-14T08:34:53.750Z,1007.5
2017-08-14T08:35:55.151Z,1007.5
2017-08-14T08:36:56.553Z,1007.5
2017-08-14T08:37:57.959Z,1007.5
2017-08-14T08:38:59.368Z,1007.5
2017-08-14T08:40:00.773Z,1007.5
2017-08-14T08:41:02.177Z,1007.5
2017-08-14T08:42:03.583Z,1007.5
2017-08-14T08:43:04.984Z,1007.5
2017-08-14T08:44:06.393Z,1007.5
2017-08-14T08:45:07.838Z,1007.5
2017-08-14T08:46:09.240Z,1007.6
2017-08-14T08:47:10.645Z,1007.6
2017-08-14T08:48:12.059Z,1007.5
2017-08-14T08:49:13.464Z,1007.5
2017-08-14T08:50:14.871Z,1007.5
2017-08-14T08:51:16.276Z,1007.5
2017-08-14T08:52:17.709Z,1007.4
2017-08-14T08:53:19.117Z,1007.4
2017-08-14T08:54:20.517Z,1007.4
2017-08-14T08:55:21.929Z,1007.4
2017-08-14T08:56:23.382Z,1007.4
2017-08-14T08:57:24.789Z,1007.4
2017-08-14T08:58:26.193Z,1007.4
2017-08-14T08:59:27.596Z,1007.4
2017-08-14T09:00:29.002Z,1007.4
2017-08-14T09:01:30.411Z,1007.5
2017-08-14T09:02:31.877Z,1007.4
2017-08-14T09:03:33.283Z,1007.4
2017-08-14T09:04:34.690Z,1007.4
2017-08-14T09:05:36.094Z,1007.5
2017-08-14T09:06:37.512Z,1007.4
2017-08-14T09:07:38.919Z,1007.4
2017-08-14T09:08:40.503Z,1007.4
2017-08-14T09:09:41.910Z,1007.4
2017-08-14T09:10:43.318Z,1007.4
2017-08-14T09:11:44.724Z,1007.4
2017-08-14T09:12:46.132Z,1007.3
2017-08-14T09:13:47.537Z,1007.3
2017-08-14T09:14:48.945Z,1007.3
2017-08-14T09:15:50.387Z,1007.3
2017-08-14T09:16:51.792Z,1007.3
2017-08-14T09:17:53.198Z,1007.3
2017-08-14T09:18:54.605Z,1007.3
2017-08-14T09:19:56.007Z,1007.3
2017-08-14T09:20:57.415Z,1007.3
2017-08-14T09:21:58.825Z,1007.3
2017-08-14T09:23:00.231Z,1007.3
2017-08-14T09:24:01.643Z,1007.3
2017-08-14T09:25:03.051Z,1007.3
2017-08-14T09:26:04.598Z,1007.2
2017-08-14T09:27:06.009Z,1007.2
2017-08-14T09:28:07.533Z,1007.3
2017-08-14T09:29:08.935Z,1007.3
2017-08-14T09:30:10.344Z,1007.3
2017-08-14T09:31:11.750Z,1007.2
2017-08-14T09:32:13.160Z,1007.2
2017-08-14T09:33:14.563Z,1007.2
2017-08-14T09:34:16.024Z,1007.2
2017-08-14T09:35:17.428Z,1007.2
2017-08-14T09:36:18.836Z,1007.1
2017-08-14T09:37:20.239Z,1007.1
2017-08-14T09:38:21.649Z,1007.1
2017-08-14T09:39:23.058Z,1007.1
2017-08-14T09:40:24.462Z,1007.1
2017-08-14T09:41:25.865Z,1007.1
2017-08-14T09:42:27.271Z,1007.0
2017-08-14T09:43:28.681Z,1007.0
2017-08-14T09:44:30.084Z,1007.0
2017-08-14T09:45:31.493Z,1007.0
2017-08-14T09:46:32.899Z,1007.0
2017-08-14T09:47:34.304Z,1007.0
2017-08-14T09:48:35.715Z,1007.0
2017-08-14T09:49:37.123Z,1007.0
2017-08-14T09:50:38.526Z,1007.0
2017-08-14T09:51:39.932Z,1007.0
2017-08-14T09:52:41.365Z,1007.0
2017-08-14T09:53:42.776Z,1007.0
2017-08-14T09:54:44.178Z,1007.0
2017-08-14T09:55:45.584Z,1007.0
2017-08-14T09:56:46.990Z,1006.9
2017-08-14T09:57:48.974Z,1006.9
2017-08-14T09:58:50.363Z,1006.9
2017-08-14T09:59:51.770Z,1007.0
2017-08-14T10:00:53.178Z,1006.9
2017-08-14T10:01:54.582Z,1006.9
2017-08-14T10:02:55.984Z,1006.9
2017-08-14T10:03:57.398Z,1006.9
2017-08-14T10:04:58.803Z,1006.9
2017-08-14T10:06:00.212Z,1006.9
2017-08-14T10:07:01.621Z,1006.9
2017-08-14T10:08:03.035Z,1006.9
2017-08-14T10:09:04.444Z,1006.9
2017-08-14T10:10:05.956Z,1006.9
2017-08-14T10:11:07.368Z,1006.9
2017-08-14T10:12:08.777Z,1006.9
2017-08-14T10:13:10.186Z,1006.9
2017-08-14T10:14:12.328Z,1006.9
2017-08-14T10:15:13.737Z,1006.9
2017-08-14T10:16:15.145Z,1006.8
2017-08-14T10:17:16.680Z,1006.8
2017-08-14T10:18:18.066Z,1006.8
2017-08-14T10:19:19.471Z,1006.8
2017-08-14T10:20:20.880Z,1006.8
2017-08-14T10:21:22.289Z,1006.8
2017-08-14T10:22:23.703Z,1006.7
2017-08-14T10:23:25.111Z,1006.7
2017-08-14T10:24:26.524Z,1006.7
2017-08-14T10:25:27.933Z,1006.7
2017-08-14T10:26:29.345Z,1006.7
2017-08-14T10:27:30.820Z,1006.7
2017-08-14T10:28:32.230Z,1006.7
2017-08-14T10:29:33.645Z,1006.7
2017-08-14T10:30:35.058Z,1006.7
2017-08-14T10:31:36.466Z,1006.7
2017-08-14T10:32:37.874Z,1006.7
2017-08-14T10:33:39.284Z,1006.7
2017-08-14T10:34:40.694Z,1006.7
2017-08-14T10:35:42.105Z,1006.7
2017-08-14T10:36:43.517Z,1006.7
2017-08-14T10:37:44.926Z,1006.7
2017-08-14T10:38:46.334Z,1006.7
2017-08-14T10:39:47.777Z,1006.7
2017-08-14T10:40:49.182Z,1006.7
2017-08-14T10:41:50.592Z,1006.8
2017-08-14T10:42:52.005Z,1006.7
2017-08-14T10:43:53.414Z,1006.7
2017-08-14T10:44:54.825Z,1006.7
2017-08-14T10:45:56.235Z,1006.7
2017-08-14T10:46:57.645Z,1006.7
2017-08-14T10:47:59.089Z,1006.6
2017-08-14T10:49:00.501Z,1006.7
2017-08-14T10:50:01.912Z,1006.6
2017-08-14T10:51:03.382Z,1006.6
2017-08-14T10:52:04.874Z,1006.6
2017-08-14T10:53:06.343Z,1006.6
2017-08-14T10:54:07.733Z,1006.6
2017-08-14T10:55:09.178Z,1006.6
2017-08-14T10:56:10.590Z,1006.6
2017-08-14T10:57:12.062Z,1006.5
2017-08-14T10:58:13.482Z,1006.6
2017-08-14T10:59:14.894Z,1006.5
2017-08-14T11:00:16.333Z,1006.6
2017-08-14T11:01:17.753Z,1006.5
2017-08-14T11:02:19.169Z,1006.6
2017-08-14T11:03:20.585Z,1006.5
2017-08-14T11:04:22.005Z,1006.5
2017-08-14T11:05:23.420Z,1006.5
2017-08-14T11:06:24.833Z,1006.5
2017-08-14T11:07:26.279Z,1006.4
2017-08-14T11:08:27.697Z,1006.4
2017-08-14T11:09:29.113Z,1006.4
2017-08-14T11:10:30.538Z,1006.4
2017-08-14T11:11:31.948Z,1006.4
2017-08-14T11:12:33.369Z,1006.4
2017-08-14T11:13:34.872Z,1006.4
2017-08-14T11:14:36.256Z,1006.4
2017-08-14T11:15:37.681Z,1006.3
2017-08-14T11:16:39.097Z,1006.3
2017-08-14T11:17:40.515Z,1006.4
2017-08-14T11:18:41.936Z,1006.3
2017-08-14T11:19:43.366Z,1006.3
2017-08-14T11:20:44.781Z,1006.3
2017-08-14T11:21:46.199Z,1006.3
2017-08-14T11:22:47.617Z,1006.2
2017-08-14T11:23:49.031Z,1006.2
2017-08-14T11:24:50.447Z,1006.3
2017-08-14T11:25:51.867Z,1006.3
2017-08-14T11:26:53.313Z,1006.3
2017-08-14T11:27:54.727Z,1006.2
2017-08-14T11:28:56.231Z,1006.2
2017-08-14T11:29:57.645Z,1006.1
2017-08-14T11:30:59.105Z,1006.1
2017-08-14T11:32:00.528Z,1006.1
2017-08-14T11:33:02.177Z,1006.2
2017-08-14T11:34:03.593Z,1006.1
2017-08-14T11:35:05.032Z,1006.1
2017-08-14T11:36:06.471Z,1006.1
2017-08-14T11:37:07.889Z,1006.0
2017-08-14T11:38:09.299Z,1006.0
2017-08-14T11:39:10.823Z,1006.0
2017-08-14T11:40:12.246Z,1006.0
2017-08-14T11:41:13.669Z,1005.9
2017-08-14T11:42:15.121Z,1005.9
2017-08-14T11:43:16.556Z,1005.8
2017-08-14T11:44:17.994Z,1005.9
2017-08-14T11:45:19.431Z,1005.8
2017-08-14T11:46:20.859Z,1005.9
2017-08-14T11:47:22.283Z,1006.0
2017-08-14T11:48:23.704Z,1005.9
2017-08-14T11:49:25.115Z,1006.0
2017-08-14T11:50:26.527Z,1006.0
2017-08-14T11:51:27.944Z,1006.0
2017-08-14T11:52:29.358Z,1005.9
2017-08-14T11:53:30.773Z,1005.9
2017-08-14T11:54:32.189Z,1005.8
2017-08-14T11:55:33.604Z,1005.7
2017-08-14T11:56:35.019Z,1005.8
2017-08-14T11:57:36.429Z,1005.9
2017-08-14T11:58:37.841Z,1005.8
2017-08-14T11:59:39.258Z,1005.7
2017-08-14T12:00:40.672Z,1005.7
2017-08-14T12:01:42.086Z,1005.7
2017-08-14T12:02:43.497Z,1005.7
2017-08-14T12:03:44.913Z,1005.7
2017-08-14T12:04:46.324Z,1005.7
2017-08-14T12:05:47.733Z,1005.7
2017-08-14T12:06:49.146Z,1005.6
2017-08-14T12:07:50.559Z,1005.7
2017-08-14T12:08:51.975Z,1005.7
2017-08-14T12:09:53.389Z,1005.8
2017-08-14T12:10:54.802Z,1005.7
2017-08-14T12:11:56.211Z,1005.6
2017-08-14T12:12:57.625Z,1005.6
2017-08-14T12:13:59.036Z,1005.6
2017-08-14T12:15:00.449Z,1005.6
2017-08-14T12:16:01.862Z,1005.7
2017-08-14T12:17:03.277Z,1005.7
2017-08-14T12:18:04.688Z,1005.8
2017-08-14T12:19:06.101Z,1005.8
2017-08-14T12:20:07.515Z,1005.8
2017-08-14T12:21:08.926Z,1005.8
2017-08-14T12:22:10.339Z,1005.8
2017-08-14T12:23:11.760Z,1005.8
2017-08-14T12:24:13.176Z,1005.7
2017-08-14T12:25:14.591Z,1005.8
2017-08-14T12:26:16.004Z,1005.8
2017-08-14T12:27:17.417Z,1005.8
2017-08-14T12:28:18.835Z,1005.8
2017-08-14T12:29:20.243Z,1005.8
2017-08-14T12:30:21.657Z,1005.7
2017-08-14T12:31:23.072Z,1005.7
2017-08-14T12:32:24.482Z,1005.7
2017-08-14T12:33:25.896Z,1005.7
2017-08-14T12:34:27.378Z,1005.6
2017-08-14T12:35:28.792Z,1005.5
2017-08-14T12:36:30.209Z,1005.5
2017-08-14T12:37:31.622Z,1005.7
2017-08-14T12:38:33.038Z,1005.7
2017-08-14T12:39:34.454Z,1005.6
2017-08-14T12:40:35.868Z,1005.6
2017-08-14T12:41:37.278Z,1005.5
2017-08-14T12:42:38.687Z,1005.3
2017-08-14T12:43:40.104Z,1005.6
2017-08-14T12:44:41.519Z,1005.4
2017-08-14T12:45:42.958Z,1005.4